sensor_id;sensor_type;location;lat;lon;timestamp;pressure;altitude;pressure_sealevel;temperature;humidity
13934;BME280;7039;52.168;9.866;2022-12-18T00:00:49;101943.91;;;-4.95;80.80
13934;BME280;7039;52.168;9.866;2022-12-18T00:03:15;101940.41;;;-5.21;81.09
13934;BME280;7039;52.168;9.866;2022-12-18T00:05:46;101943.38;;;-5.32;80.57
13934;BME280;7039;52.168;9.866;2022-12-18T00:08:13;101932.72;;;-5.67;80.61
13934;BME280;7039;52.168;9.866;2022-12-18T00:11:05;101927.66;;;-5.88;80.54
13934;BME280;7039;52.168;9.866;2022-12-18T00:20:42;101944.06;;;-6.41;81.77
13934;BME280;7039;52.168;9.866;2022-12-18T00:23:09;101949.91;;;-6.63;82.69
13934;BME280;7039;52.168;9.866;2022-12-18T00:25:36;101950.09;;;-6.78;83.49
13934;BME280;7039;52.168;9.866;2022-12-18T00:28:04;101948.03;;;-6.67;84.09
13934;BME280;7039;52.168;9.866;2022-12-18T00:30:36;101946.53;;;-6.81;83.89
13934;BME280;7039;52.168;9.866;2022-12-18T00:36:51;101948.22;;;-6.82;84.56
13934;BME280;7039;52.168;9.866;2022-12-18T00:39:22;101957.69;;;-6.78;85.32
13934;BME280;7039;52.168;9.866;2022-12-18T00:42:19;101956.03;;;-6.77;85.45
13934;BME280;7039;52.168;9.866;2022-12-18T00:52:40;101958.16;;;-6.86;85.80
13934;BME280;7039;52.168;9.866;2022-12-18T00:55:21;101963.13;;;-7.07;85.56
13934;BME280;7039;52.168;9.866;2022-12-18T00:57:48;101969.59;;;-7.14;86.04
13934;BME280;7039;52.168;9.866;2022-12-18T01:00:23;101972.19;;;-6.95;86.45
13934;BME280;7039;52.168;9.866;2022-12-18T01:03:21;101966.28;;;-6.94;86.25
13934;BME280;7039;52.168;9.866;2022-12-18T01:06:15;101965.63;;;-6.89;86.43
13934;BME280;7039;52.168;9.866;2022-12-18T01:09:06;101960.47;;;-6.91;86.32
13934;BME280;7039;52.168;9.866;2022-12-18T01:11:41;101953.09;;;-7.24;85.53
13934;BME280;7039;52.168;9.866;2022-12-18T01:14:08;101951.50;;;-7.40;85.57
13934;BME280;7039;52.168;9.866;2022-12-18T01:16:45;101953.75;;;-7.46;85.61
13934;BME280;7039;52.168;9.866;2022-12-18T01:19:12;101952.72;;;-7.49;86.06
13934;BME280;7039;52.168;9.866;2022-12-18T01:21:39;101959.84;;;-7.42;86.49
13934;BME280;7039;52.168;9.866;2022-12-18T01:24:11;101976.47;;;-7.29;86.54
13934;BME280;7039;52.168;9.866;2022-12-18T01:26:41;101973.94;;;-7.47;87.20
13934;BME280;7039;52.168;9.866;2022-12-18T01:29:07;101985.44;;;-7.36;87.85
13934;BME280;7039;52.168;9.866;2022-12-18T01:31:34;101985.09;;;-7.26;87.70
13934;BME280;7039;52.168;9.866;2022-12-18T01:34:01;101977.50;;;-7.26;87.54
13934;BME280;7039;52.168;9.866;2022-12-18T01:36:30;101975.25;;;-7.20;87.50
13934;BME280;7039;52.168;9.866;2022-12-18T01:39:01;101976.38;;;-7.13;87.18
13934;BME280;7039;52.168;9.866;2022-12-18T01:41:30;101977.50;;;-7.26;87.25
13934;BME280;7039;52.168;9.866;2022-12-18T01:45:00;101993.69;;;-7.04;87.72
13934;BME280;7039;52.168;9.866;2022-12-18T01:47:53;101990.06;;;-7.09;87.30
13934;BME280;7039;52.168;9.866;2022-12-18T01:50:28;102000.56;;;-7.02;87.77
13934;BME280;7039;52.168;9.866;2022-12-18T01:53:04;101999.50;;;-7.07;86.35
13934;BME280;7039;52.168;9.866;2022-12-18T01:55:35;101999.34;;;-6.92;86.68
13934;BME280;7039;52.168;9.866;2022-12-18T01:58:04;101992.81;;;-6.87;86.78
13934;BME280;7039;52.168;9.866;2022-12-18T02:00:31;101997.22;;;-6.83;87.05
13934;BME280;7039;52.168;9.866;2022-12-18T02:02:58;101998.50;;;-6.73;87.14
13934;BME280;7039;52.168;9.866;2022-12-18T02:05:30;102010.31;;;-6.54;87.46
13934;BME280;7039;52.168;9.866;2022-12-18T02:11:37;102018.47;;;-6.03;87.55
13934;BME280;7039;52.168;9.866;2022-12-18T02:14:18;102028.75;;;-6.00;87.19
13934;BME280;7039;52.168;9.866;2022-12-18T02:16:52;102016.13;;;-5.98;86.96
13934;BME280;7039;52.168;9.866;2022-12-18T02:19:39;102013.53;;;-6.00;87.06
13934;BME280;7039;52.168;9.866;2022-12-18T02:22:18;102009.19;;;-6.02;87.18
13934;BME280;7039;52.168;9.866;2022-12-18T02:24:57;102016.31;;;-5.94;87.53
13934;BME280;7039;52.168;9.866;2022-12-18T02:27:29;102013.75;;;-5.94;87.41
13934;BME280;7039;52.168;9.866;2022-12-18T02:30:01;102014.88;;;-5.87;87.40
13934;BME280;7039;52.168;9.866;2022-12-18T02:32:31;102020.63;;;-5.72;87.24
13934;BME280;7039;52.168;9.866;2022-12-18T02:35:11;102009.38;;;-5.77;86.87
13934;BME280;7039;52.168;9.866;2022-12-18T02:37:40;102010.44;;;-5.72;86.56
13934;BME280;7039;52.168;9.866;2022-12-18T02:40:24;102004.34;;;-5.75;86.54
13934;BME280;7039;52.168;9.866;2022-12-18T02:42:55;102005.19;;;-5.76;86.87
13934;BME280;7039;52.168;9.866;2022-12-18T02:45:23;102010.25;;;-5.76;86.77
13934;BME280;7039;52.168;9.866;2022-12-18T02:47:55;102008.13;;;-5.66;86.63
13934;BME280;7039;52.168;9.866;2022-12-18T02:50:38;102000.41;;;-5.69;86.46
13934;BME280;7039;52.168;9.866;2022-12-18T02:53:14;101996.88;;;-5.72;86.48
13934;BME280;7039;52.168;9.866;2022-12-18T02:55:54;101995.06;;;-5.75;86.50
13934;BME280;7039;52.168;9.866;2022-12-18T02:58:45;102007.25;;;-5.68;86.80
13934;BME280;7039;52.168;9.866;2022-12-18T03:01:54;102000.97;;;-5.55;86.28
13934;BME280;7039;52.168;9.866;2022-12-18T03:04:58;101993.50;;;-5.50;86.10
13934;BME280;7039;52.168;9.866;2022-12-18T03:07:47;102005.66;;;-5.43;86.04
13934;BME280;7039;52.168;9.866;2022-12-18T03:11:04;102012.00;;;-5.33;85.33
13934;BME280;7039;52.168;9.866;2022-12-18T03:17:08;101995.94;;;-5.32;85.26
13934;BME280;7039;52.168;9.866;2022-12-18T03:19:43;101999.28;;;-5.33;85.04
13934;BME280;7039;52.168;9.866;2022-12-18T03:22:13;101998.81;;;-5.23;84.73
13934;BME280;7039;52.168;9.866;2022-12-18T03:24:42;102006.63;;;-5.18;84.37
13934;BME280;7039;52.168;9.866;2022-12-18T03:27:13;101992.97;;;-5.20;84.56
13934;BME280;7039;52.168;9.866;2022-12-18T03:29:45;101986.78;;;-5.27;84.58
13934;BME280;7039;52.168;9.866;2022-12-18T03:32:25;101983.75;;;-5.18;84.39
13934;BME280;7039;52.168;9.866;2022-12-18T03:34:55;101994.16;;;-5.12;84.35
13934;BME280;7039;52.168;9.866;2022-12-18T03:37:24;101980.41;;;-5.17;84.08
13934;BME280;7039;52.168;9.866;2022-12-18T03:39:52;101988.53;;;-5.26;84.18
13934;BME280;7039;52.168;9.866;2022-12-18T03:42:35;101986.78;;;-5.27;84.46
13934;BME280;7039;52.168;9.866;2022-12-18T03:45:26;101982.59;;;-5.27;84.51
13934;BME280;7039;52.168;9.866;2022-12-18T03:48:00;101984.56;;;-5.19;84.53
13934;BME280;7039;52.168;9.866;2022-12-18T03:50:36;101981.88;;;-5.22;84.48
13934;BME280;7039;52.168;9.866;2022-12-18T03:53:12;101992.38;;;-5.15;84.25
13934;BME280;7039;52.168;9.866;2022-12-18T03:55:41;101988.25;;;-5.11;83.85
13934;BME280;7039;52.168;9.866;2022-12-18T03:58:10;101979.66;;;-5.15;83.78
13934;BME280;7039;52.168;9.866;2022-12-18T04:00:41;101982.13;;;-5.16;84.05
13934;BME280;7039;52.168;9.866;2022-12-18T04:03:09;101982.78;;;-5.22;84.05
13934;BME280;7039;52.168;9.866;2022-12-18T04:05:48;101984.91;;;-5.10;84.10
13934;BME280;7039;52.168;9.866;2022-12-18T04:08:26;101989.16;;;-5.11;84.00
13934;BME280;7039;52.168;9.866;2022-12-18T04:10:53;101980.59;;;-5.13;83.59
13934;BME280;7039;52.168;9.866;2022-12-18T04:13:24;101988.44;;;-5.07;83.65
13934;BME280;7039;52.168;9.866;2022-12-18T04:15:53;101994.94;;;-5.13;83.42
13934;BME280;7039;52.168;9.866;2022-12-18T04:18:20;101995.94;;;-5.10;83.43
13934;BME280;7039;52.168;9.866;2022-12-18T04:20:59;102000.19;;;-5.10;83.48
13934;BME280;7039;52.168;9.866;2022-12-18T04:23:29;101990.59;;;-5.17;83.36
13934;BME280;7039;52.168;9.866;2022-12-18T04:25:56;102003.34;;;-5.16;83.35
13934;BME280;7039;52.168;9.866;2022-12-18T04:28:23;101999.47;;;-5.29;83.04
13934;BME280;7039;52.168;9.866;2022-12-18T04:30:49;101996.19;;;-5.26;83.61
13934;BME280;7039;52.168;9.866;2022-12-18T04:33:18;101996.00;;;-5.31;83.46
13934;BME280;7039;52.168;9.866;2022-12-18T04:35:45;101993.84;;;-5.42;83.75
13934;BME280;7039;52.168;9.866;2022-12-18T04:38:12;101985.59;;;-5.58;84.17
13934;BME280;7039;52.168;9.866;2022-12-18T04:40:41;101990.16;;;-5.70;84.53
13934;BME280;7039;52.168;9.866;2022-12-18T04:43:09;101991.44;;;-5.60;84.74
13934;BME280;7039;52.168;9.866;2022-12-18T04:48:27;101992.34;;;-5.37;84.50
13934;BME280;7039;52.168;9.866;2022-12-18T04:50:54;101992.34;;;-5.37;84.04
13934;BME280;7039;52.168;9.866;2022-12-18T04:53:21;101985.00;;;-5.30;83.63
13934;BME280;7039;52.168;9.866;2022-12-18T04:55:49;101996.19;;;-5.26;83.35
13934;BME280;7039;52.168;9.866;2022-12-18T04:58:19;101995.25;;;-5.28;83.14
13934;BME280;7039;52.168;9.866;2022-12-18T05:00:45;101991.47;;;-5.38;83.50
13934;BME280;7039;52.168;9.866;2022-12-18T05:03:12;101999.91;;;-5.39;83.49
13934;BME280;7039;52.168;9.866;2022-12-18T05:05:40;101999.91;;;-5.39;83.76
13934;BME280;7039;52.168;9.866;2022-12-18T05:08:07;101990.03;;;-5.52;83.94
13934;BME280;7039;52.168;9.866;2022-12-18T05:10:34;101984.84;;;-5.55;84.10
13934;BME280;7039;52.168;9.866;2022-12-18T05:13:00;101986.34;;;-5.60;84.09
13934;BME280;7039;52.168;9.866;2022-12-18T05:15:28;101991.16;;;-5.67;84.25
13934;BME280;7039;52.168;9.866;2022-12-18T05:17:56;101997.38;;;-5.60;84.61
13934;BME280;7039;52.168;9.866;2022-12-18T05:20:23;101994.56;;;-5.66;84.52
13934;BME280;7039;52.168;9.866;2022-12-18T05:22:51;102011.09;;;-5.56;84.45
13934;BME280;7039;52.168;9.866;2022-12-18T05:25:18;102005.00;;;-5.60;84.43
13934;BME280;7039;52.168;9.866;2022-12-18T05:27:49;101999.34;;;-5.53;84.27
13934;BME280;7039;52.168;9.866;2022-12-18T05:30:18;102011.28;;;-5.52;84.13
13934;BME280;7039;52.168;9.866;2022-12-18T05:32:48;102004.50;;;-5.51;83.99
13934;BME280;7039;52.168;9.866;2022-12-18T05:35:15;102013.56;;;-5.58;84.16
13934;BME280;7039;52.168;9.866;2022-12-18T05:37:41;102019.44;;;-5.59;83.97
13934;BME280;7039;52.168;9.866;2022-12-18T05:40:11;102013.81;;;-5.52;84.03
13934;BME280;7039;52.168;9.866;2022-12-18T05:42:38;102021.03;;;-5.61;83.67
13934;BME280;7039;52.168;9.866;2022-12-18T05:45:05;102020.25;;;-5.60;83.79
13934;BME280;7039;52.168;9.866;2022-12-18T05:47:32;102014.16;;;-5.63;83.99
13934;BME280;7039;52.168;9.866;2022-12-18T05:49:59;102014.97;;;-5.64;83.94
13934;BME280;7039;52.168;9.866;2022-12-18T05:52:25;102022.97;;;-5.55;83.73
13934;BME280;7039;52.168;9.866;2022-12-18T05:54:52;102026.34;;;-5.56;83.88
13934;BME280;7039;52.168;9.866;2022-12-18T05:57:20;102028.66;;;-5.61;84.01
13934;BME280;7039;52.168;9.866;2022-12-18T05:59:47;102037.38;;;-5.56;83.90
13934;BME280;7039;52.168;9.866;2022-12-18T06:02:15;102033.03;;;-5.37;83.19
13934;BME280;7039;52.168;9.866;2022-12-18T06:04:46;102039.34;;;-5.28;82.31
13934;BME280;7039;52.168;9.866;2022-12-18T06:07:16;102035.06;;;-5.29;82.12
13934;BME280;7039;52.168;9.866;2022-12-18T06:09:43;102043.13;;;-5.39;82.17
13934;BME280;7039;52.168;9.866;2022-12-18T06:12:10;102033.28;;;-5.31;82.14
13934;BME280;7039;52.168;9.866;2022-12-18T06:14:38;102042.81;;;-5.26;82.10
13934;BME280;7039;52.168;9.866;2022-12-18T06:17:05;102039.41;;;-5.26;81.93
13934;BME280;7039;52.168;9.866;2022-12-18T06:19:32;102043.75;;;-5.23;82.03
13934;BME280;7039;52.168;9.866;2022-12-18T06:21:59;102048.44;;;-5.12;81.95
13934;BME280;7039;52.168;9.866;2022-12-18T06:24:26;102050.47;;;-5.03;81.46
13934;BME280;7039;52.168;9.866;2022-12-18T06:26:53;102048.88;;;-5.01;81.27
13934;BME280;7039;52.168;9.866;2022-12-18T06:29:20;102041.34;;;-4.98;81.30
13934;BME280;7039;52.168;9.866;2022-12-18T06:31:51;102037.06;;;-4.99;81.26
13934;BME280;7039;52.168;9.866;2022-12-18T06:34:17;102033.53;;;-5.03;81.58
13934;BME280;7039;52.168;9.866;2022-12-18T06:36:44;102038.75;;;-4.99;81.39
13934;BME280;7039;52.168;9.866;2022-12-18T06:39:11;102033.72;;;-4.98;81.11
13934;BME280;7039;52.168;9.866;2022-12-18T06:41:38;102032.84;;;-4.98;81.61
13934;BME280;7039;52.168;9.866;2022-12-18T06:44:08;102047.84;;;-4.84;81.19
13934;BME280;7039;52.168;9.866;2022-12-18T06:46:35;102041.75;;;-4.87;81.08
13934;BME280;7039;52.168;9.866;2022-12-18T06:49:06;102046.97;;;-4.84;81.25
13934;BME280;7039;52.168;9.866;2022-12-18T06:51:37;102046.00;;;-4.88;81.10
13934;BME280;7039;52.168;9.866;2022-12-18T06:54:05;102046.78;;;-4.89;81.43
13934;BME280;7039;52.168;9.866;2022-12-18T06:56:31;102039.97;;;-4.90;81.55
13934;BME280;7039;52.168;9.866;2022-12-18T06:58:58;102052.00;;;-4.86;81.50
13934;BME280;7039;52.168;9.866;2022-12-18T07:01:25;102051.25;;;-4.83;81.42
13934;BME280;7039;52.168;9.866;2022-12-18T07:03:52;102054.16;;;-4.74;81.40
13934;BME280;7039;52.168;9.866;2022-12-18T07:06:23;102064.34;;;-4.74;81.46
13934;BME280;7039;52.168;9.866;2022-12-18T07:08:50;102059.31;;;-4.72;81.31
13934;BME280;7039;52.168;9.866;2022-12-18T07:11:18;102061.84;;;-4.72;81.30
13934;BME280;7039;52.168;9.866;2022-12-18T07:13:48;102066.06;;;-4.73;81.42
13934;BME280;7039;52.168;9.866;2022-12-18T07:16:16;102068.78;;;-4.68;81.43
13934;BME280;7039;52.168;9.866;2022-12-18T07:18:43;102072.25;;;-4.66;81.34
13934;BME280;7039;52.168;9.866;2022-12-18T07:21:11;102082.41;;;-4.68;81.41
13934;BME280;7039;52.168;9.866;2022-12-18T07:23:43;102086.75;;;-4.64;81.47
13934;BME280;7039;52.168;9.866;2022-12-18T07:26:14;102082.75;;;-4.58;81.43
13934;BME280;7039;52.168;9.866;2022-12-18T07:28:41;102091.94;;;-4.62;81.27
13934;BME280;7039;52.168;9.866;2022-12-18T07:31:18;102094.53;;;-4.60;81.62
13934;BME280;7039;52.168;9.866;2022-12-18T07:33:49;102105.75;;;-4.55;81.29
13934;BME280;7039;52.168;9.866;2022-12-18T07:36:21;102093.47;;;-4.66;81.63
13934;BME280;7039;52.168;9.866;2022-12-18T07:39:05;102098.69;;;-4.63;82.04
13934;BME280;7039;52.168;9.866;2022-12-18T07:41:35;102090.94;;;-4.66;82.02
13934;BME280;7039;52.168;9.866;2022-12-18T07:44:10;102102.78;;;-4.66;82.25
13934;BME280;7039;52.168;9.866;2022-12-18T07:46:44;102101.00;;;-4.69;82.49
13934;BME280;7039;52.168;9.866;2022-12-18T07:49:13;102094.81;;;-4.75;82.64
13934;BME280;7039;52.168;9.866;2022-12-18T07:51:40;102094.13;;;-4.71;82.69
13934;BME280;7039;52.168;9.866;2022-12-18T07:54:08;102097.69;;;-4.66;82.62
13934;BME280;7039;52.168;9.866;2022-12-18T07:56:40;102084.22;;;-4.64;82.82
13934;BME280;7039;52.168;9.866;2022-12-18T07:59:07;102091.69;;;-4.68;82.67
13934;BME280;7039;52.168;9.866;2022-12-18T08:01:34;102088.03;;;-4.52;82.69
13934;BME280;7039;52.168;9.866;2022-12-18T08:04:00;102084.81;;;-4.48;82.22
13934;BME280;7039;52.168;9.866;2022-12-18T08:06:30;102083.88;;;-4.50;82.41
13934;BME280;7039;52.168;9.866;2022-12-18T08:08:57;102076.13;;;-4.53;82.42
13934;BME280;7039;52.168;9.866;2022-12-18T08:11:28;102082.53;;;-4.41;82.13
13934;BME280;7039;52.168;9.866;2022-12-18T08:13:57;102084.56;;;-4.32;82.41
13934;BME280;7039;52.168;9.866;2022-12-18T08:16:24;102079.38;;;-4.35;82.00
13934;BME280;7039;52.168;9.866;2022-12-18T08:18:51;102093.69;;;-4.14;81.76
13934;BME280;7039;52.168;9.866;2022-12-18T08:21:20;102079.06;;;-4.20;81.58
13934;BME280;7039;52.168;9.866;2022-12-18T08:23:48;102084.00;;;-4.01;81.06
13934;BME280;7039;52.168;9.866;2022-12-18T08:26:15;102079.34;;;-3.88;80.29
13934;BME280;7039;52.168;9.866;2022-12-18T08:28:43;102076.34;;;-3.76;79.94
13934;BME280;7039;52.168;9.866;2022-12-18T08:31:20;102076.34;;;-3.76;79.88
13934;BME280;7039;52.168;9.866;2022-12-18T08:33:51;102069.31;;;-3.84;80.07
13934;BME280;7039;52.168;9.866;2022-12-18T08:39:02;102071.13;;;-3.80;79.68
13934;BME280;7039;52.168;9.866;2022-12-18T08:41:29;102057.47;;;-3.82;79.51
13934;BME280;7039;52.168;9.866;2022-12-18T08:43:57;102062.16;;;-3.68;79.72
13934;BME280;7039;52.168;9.866;2022-12-18T08:46:44;102055.50;;;-3.65;79.06
13934;BME280;7039;52.168;9.866;2022-12-18T08:49:11;102049.53;;;-3.65;78.88
13934;BME280;7039;52.168;9.866;2022-12-18T08:51:38;102056.44;;;-3.61;78.91
13934;BME280;7039;52.168;9.866;2022-12-18T08:54:05;102058.97;;;-3.63;79.09
13934;BME280;7039;52.168;9.866;2022-12-18T08:56:32;102052.03;;;-3.67;79.23
13934;BME280;7039;52.168;9.866;2022-12-18T08:59:01;102061.53;;;-3.63;78.96
13934;BME280;7039;52.168;9.866;2022-12-18T09:01:27;102058.22;;;-3.60;78.93
13934;BME280;7039;52.168;9.866;2022-12-18T09:03:54;102057.50;;;-3.56;78.91
13934;BME280;7039;52.168;9.866;2022-12-18T09:06:22;102057.03;;;-3.44;78.67
13934;BME280;7039;52.168;9.866;2022-12-18T09:08:49;102064.75;;;-3.43;78.23
13934;BME280;7039;52.168;9.866;2022-12-18T09:11:20;102066.81;;;-3.31;77.95
13934;BME280;7039;52.168;9.866;2022-12-18T09:13:47;102064.00;;;-3.13;77.08
13934;BME280;7039;52.168;9.866;2022-12-18T09:16:16;102065.22;;;-3.00;76.42
13934;BME280;7039;52.168;9.866;2022-12-18T09:18:43;102053.09;;;-3.07;76.29
13934;BME280;7039;52.168;9.866;2022-12-18T09:21:11;102054.25;;;-2.98;76.75
13934;BME280;7039;52.168;9.866;2022-12-18T09:23:38;102050.34;;;-2.86;75.76
13934;BME280;7039;52.168;9.866;2022-12-18T09:26:04;102049.72;;;-2.79;75.45
13934;BME280;7039;52.168;9.866;2022-12-18T09:28:31;102039.50;;;-2.79;75.45
13934;BME280;7039;52.168;9.866;2022-12-18T09:30:57;102037.22;;;-2.70;75.23
13934;BME280;7039;52.168;9.866;2022-12-18T09:33:26;102039.94;;;-2.65;75.46
13934;BME280;7039;52.168;9.866;2022-12-18T09:35:52;102044.13;;;-2.66;75.36
13934;BME280;7039;52.168;9.866;2022-12-18T09:38:19;102053.09;;;-2.52;74.88
13934;BME280;7039;52.168;9.866;2022-12-18T09:40:48;102056.97;;;-2.36;73.37
13934;BME280;7039;52.168;9.866;2022-12-18T09:43:18;102055.13;;;-2.40;73.58
13934;BME280;7039;52.168;9.866;2022-12-18T09:45:49;102056.25;;;-2.30;73.73
13934;BME280;7039;52.168;9.866;2022-12-18T09:48:19;102050.28;;;-2.31;73.52
13934;BME280;7039;52.168;9.866;2022-12-18T09:50:49;102057.94;;;-2.31;73.72
13934;BME280;7039;52.168;9.866;2022-12-18T09:53:20;102066.84;;;-2.18;73.32
13934;BME280;7039;52.168;9.866;2022-12-18T09:55:58;102067.94;;;-2.08;72.76
13934;BME280;7039;52.168;9.866;2022-12-18T09:58:33;102076.94;;;-1.91;72.37
13934;BME280;7039;52.168;9.866;2022-12-18T10:01:22;102072.22;;;-1.75;72.32
13934;BME280;7039;52.168;9.866;2022-12-18T10:03:52;102084.88;;;-1.81;71.86
13934;BME280;7039;52.168;9.866;2022-12-18T10:09:43;102077.47;;;-1.71;71.88
13934;BME280;7039;52.168;9.866;2022-12-18T10:12:54;102073.72;;;-1.50;70.88
13934;BME280;7039;52.168;9.866;2022-12-18T10:19:04;102071.38;;;-1.42;69.96
13934;BME280;7039;52.168;9.866;2022-12-18T10:21:39;102080.19;;;-1.30;70.11
13934;BME280;7039;52.168;9.866;2022-12-18T10:24:17;102058.19;;;-1.23;70.18
13934;BME280;7039;52.168;9.866;2022-12-18T10:26:52;102049.69;;;-1.22;70.17
13934;BME280;7039;52.168;9.866;2022-12-18T10:29:19;102048.63;;;-1.30;70.30
13934;BME280;7039;52.168;9.866;2022-12-18T10:31:46;102058.19;;;-1.23;69.56
13934;BME280;7039;52.168;9.866;2022-12-18T10:34:13;102038.50;;;-1.26;69.74
13934;BME280;7039;52.168;9.866;2022-12-18T10:36:42;102032.41;;;-1.31;69.47
13934;BME280;7039;52.168;9.866;2022-12-18T10:39:17;102036.16;;;-1.18;69.43
13934;BME280;7039;52.168;9.866;2022-12-18T10:41:44;102042.22;;;-1.13;69.44
13934;BME280;7039;52.168;9.866;2022-12-18T10:44:17;102052.88;;;-0.94;69.45
13934;BME280;7039;52.168;9.866;2022-12-18T10:46:44;102044.50;;;-0.87;68.97
13934;BME280;7039;52.168;9.866;2022-12-18T10:49:21;102055.81;;;-0.79;68.81
13934;BME280;7039;52.168;9.866;2022-12-18T10:52:06;102048.56;;;-0.59;67.95
13934;BME280;7039;52.168;9.866;2022-12-18T10:54:35;102046.75;;;-0.63;67.64
13934;BME280;7039;52.168;9.866;2022-12-18T10:57:16;102044.78;;;-0.34;67.77
13934;BME280;7039;52.168;9.866;2022-12-18T10:59:55;102032.72;;;-0.39;67.24
13934;BME280;7039;52.168;9.866;2022-12-18T11:02:27;102029.25;;;-0.43;66.82
13934;BME280;7039;52.168;9.866;2022-12-18T11:04:58;102026.88;;;-0.32;66.56
13934;BME280;7039;52.168;9.866;2022-12-18T11:07:25;102019.88;;;-0.39;66.62
13934;BME280;7039;52.168;9.866;2022-12-18T11:10:00;102015.97;;;-0.21;66.63
13934;BME280;7039;52.168;9.866;2022-12-18T11:12:29;102021.09;;;-0.22;66.16
13934;BME280;7039;52.168;9.866;2022-12-18T11:14:58;102018.03;;;-0.03;66.33
13934;BME280;7039;52.168;9.866;2022-12-18T11:17:29;102017.63;;;0.22;66.24
13934;BME280;7039;52.168;9.866;2022-12-18T11:22:54;102015.53;;;0.51;63.32
13934;BME280;7039;52.168;9.866;2022-12-18T11:25:23;102016.28;;;0.44;64.03
13934;BME280;7039;52.168;9.866;2022-12-18T11:27:52;102016.44;;;0.54;64.61
13934;BME280;7039;52.168;9.866;2022-12-18T11:30:26;102020.94;;;0.66;64.49
13934;BME280;7039;52.168;9.866;2022-12-18T11:32:56;102016.28;;;0.45;64.48
13934;BME280;7039;52.168;9.866;2022-12-18T11:35:33;102014.44;;;0.35;64.87
13934;BME280;7039;52.168;9.866;2022-12-18T11:38:06;102005.72;;;0.27;64.89
13934;BME280;7039;52.168;9.866;2022-12-18T11:40:40;102005.41;;;0.08;66.21
13934;BME280;7039;52.168;9.866;2022-12-18T11:43:13;101986.63;;;0.11;65.52
13934;BME280;7039;52.168;9.866;2022-12-18T11:45:53;101996.16;;;0.16;65.69
13934;BME280;7039;52.168;9.866;2022-12-18T11:48:25;101997.31;;;0.35;65.50
13934;BME280;7039;52.168;9.866;2022-12-18T11:50:58;101982.03;;;0.41;64.55
13934;BME280;7039;52.168;9.866;2022-12-18T11:53:27;101951.53;;;0.08;64.50
13934;BME280;7039;52.168;9.866;2022-12-18T11:56:25;101961.00;;;0.12;64.78
13934;BME280;7039;52.168;9.866;2022-12-18T11:59:03;101955.94;;;0.14;64.16
13934;BME280;7039;52.168;9.866;2022-12-18T12:02:24;101942.94;;;0.06;64.42
13934;BME280;7039;52.168;9.866;2022-12-18T12:05:18;101944.63;;;0.03;64.27
13934;BME280;7039;52.168;9.866;2022-12-18T12:08:40;101938.59;;;0.01;63.99
13934;BME280;7039;52.168;9.866;2022-12-18T12:11:16;101927.53;;;0.03;64.00
13934;BME280;7039;52.168;9.866;2022-12-18T12:14:29;101919.56;;;-0.12;64.42
13934;BME280;7039;52.168;9.866;2022-12-18T12:17:21;101913.25;;;-0.30;65.22
13934;BME280;7039;52.168;9.866;2022-12-18T12:20:02;101918.38;;;-0.30;65.13
13934;BME280;7039;52.168;9.866;2022-12-18T12:23:03;101925.44;;;-0.18;65.05
13934;BME280;7039;52.168;9.866;2022-12-18T12:26:01;101915.03;;;-0.27;65.32
13934;BME280;7039;52.168;9.866;2022-12-18T21:51:44;101429.38;;;-0.55;71.98
13934;BME280;7039;52.168;9.866;2022-12-18T21:54:11;101441.22;;;-0.65;72.44
13934;BME280;7039;52.168;9.866;2022-12-18T21:56:45;101422.41;;;-0.67;72.57
13934;BME280;7039;52.168;9.866;2022-12-18T21:59:13;101423.94;;;-0.83;73.27
13934;BME280;7039;52.168;9.866;2022-12-18T22:01:40;101434.19;;;-0.83;73.61
13934;BME280;7039;52.168;9.866;2022-12-18T22:04:07;101421.28;;;-0.89;72.95
13934;BME280;7039;52.168;9.866;2022-12-18T22:06:34;101429.78;;;-0.92;73.56
13934;BME280;7039;52.168;9.866;2022-12-18T22:09:03;101417.97;;;-0.83;73.47
13934;BME280;7039;52.168;9.866;2022-12-18T22:11:30;101406.03;;;-0.80;72.62
13934;BME280;7039;52.168;9.866;2022-12-18T22:13:56;101393.22;;;-0.81;73.47
13934;BME280;7039;52.168;9.866;2022-12-18T22:16:23;101420.50;;;-0.82;73.68
13934;BME280;7039;52.168;9.866;2022-12-18T22:18:49;101424.19;;;-0.60;71.58
13934;BME280;7039;52.168;9.866;2022-12-18T22:21:21;101408.91;;;-0.54;71.93
13934;BME280;7039;52.168;9.866;2022-12-18T22:23:51;101402.00;;;-0.58;72.29
13934;BME280;7039;52.168;9.866;2022-12-18T22:26:19;101373.84;;;-0.58;72.34
13934;BME280;7039;52.168;9.866;2022-12-18T22:28:46;101367.81;;;-0.63;72.66
13934;BME280;7039;52.168;9.866;2022-12-18T22:31:30;101371.28;;;-0.58;72.96
13934;BME280;7039;52.168;9.866;2022-12-18T22:33:57;101373.72;;;-0.70;73.49
13934;BME280;7039;52.168;9.866;2022-12-18T22:36:23;101368.66;;;-0.63;73.62
13934;BME280;7039;52.168;9.866;2022-12-18T22:38:51;101373.78;;;-0.63;73.79
13934;BME280;7039;52.168;9.866;2022-12-18T22:41:17;101378.97;;;-0.56;73.54
13934;BME280;7039;52.168;9.866;2022-12-18T22:43:45;101379.94;;;-0.47;73.68
13934;BME280;7039;52.168;9.866;2022-12-18T22:46:14;101393.66;;;-0.40;73.34
13934;BME280;7039;52.168;9.866;2022-12-18T22:48:41;101386.72;;;-0.49;73.14
13934;BME280;7039;52.168;9.866;2022-12-18T22:51:08;101379.19;;;-0.33;73.08
13934;BME280;7039;52.168;9.866;2022-12-18T22:53:38;101377.47;;;-0.36;72.90
13934;BME280;7039;52.168;9.866;2022-12-18T22:56:05;101384.41;;;-0.27;71.41
13934;BME280;7039;52.168;9.866;2022-12-18T22:58:31;101380.16;;;-0.21;71.68
13934;BME280;7039;52.168;9.866;2022-12-18T23:00:59;101372.50;;;-0.17;71.61
13934;BME280;7039;52.168;9.866;2022-12-18T23:03:27;101366.34;;;-0.36;72.96
13934;BME280;7039;52.168;9.866;2022-12-18T23:06:01;101348.41;;;-0.36;73.40
13934;BME280;7039;52.168;9.866;2022-12-18T23:08:28;101345.81;;;-0.43;73.39
13934;BME280;7039;52.168;9.866;2022-12-18T23:10:54;101338.97;;;-0.39;73.23
13934;BME280;7039;52.168;9.866;2022-12-18T23:13:21;101335.56;;;-0.39;73.16
13934;BME280;7039;52.168;9.866;2022-12-18T23:15:47;101324.38;;;-0.51;73.63
13934;BME280;7039;52.168;9.866;2022-12-18T23:18:15;101318.34;;;-0.56;74.25
13934;BME280;7039;52.168;9.866;2022-12-18T23:20:42;101325.25;;;-0.47;73.69
13934;BME280;7039;52.168;9.866;2022-12-18T23:23:08;101321.88;;;-0.42;73.46
13934;BME280;7039;52.168;9.866;2022-12-18T23:25:35;101314.19;;;-0.43;73.49
13934;BME280;7039;52.168;9.866;2022-12-18T23:28:01;101313.19;;;-0.57;74.29
13934;BME280;7039;52.168;9.866;2022-12-18T23:30:28;101334.66;;;-0.48;73.71